sensor_id;sensor_type;location;lat;lon;timestamp;P1;durP1;ratioP1;P2;durP2;ratioP2
51985;SDS011;38002;53.296;6.600;2023-02-23T00:04:39;57.35;;;23.67;;
51985;SDS011;38002;53.296;6.600;2023-02-23T00:09:41;46.90;;;21.50;;
51985;SDS011;38002;53.296;6.600;2023-02-23T00:14:41;61.63;;;27.80;;
51985;SDS011;38002;53.296;6.600;2023-02-23T00:19:43;57.73;;;27.17;;
51985;SDS011;38002;53.296;6.600;2023-02-23T00:24:46;57.80;;;26.15;;
51985;SDS011;38002;53.296;6.600;2023-02-23T00:29:50;62.33;;;25.73;;
51985;SDS011;38002;53.296;6.600;2023-02-23T00:34:50;66.03;;;29.58;;
51985;SDS011;38002;53.296;6.600;2023-02-23T00:39:53;61.92;;;26.27;;
51985;SDS011;38002;53.296;6.600;2023-02-23T00:44:55;55.67;;;25.25;;
51985;SDS011;38002;53.296;6.600;2023-02-23T00:49:56;62.97;;;28.48;;
51985;SDS011;38002;53.296;6.600;2023-02-23T00:54:56;59.15;;;26.95;;
51985;SDS011;38002;53.296;6.600;2023-02-23T00:59:57;69.75;;;29.55;;
51985;SDS011;38002;53.296;6.600;2023-02-23T01:04:57;65.55;;;29.08;;
51985;SDS011;38002;53.296;6.600;2023-02-23T01:09:58;55.65;;;24.35;;
51985;SDS011;38002;53.296;6.600;2023-02-23T01:14:58;65.88;;;28.45;;
51985;SDS011;38002;53.296;6.600;2023-02-23T01:19:59;66.30;;;29.58;;
51985;SDS011;38002;53.296;6.600;2023-02-23T01:24:59;68.00;;;30.42;;
51985;SDS011;38002;53.296;6.600;2023-02-23T01:30:00;67.80;;;28.80;;
51985;SDS011;38002;53.296;6.600;2023-02-23T01:35:01;76.68;;;30.17;;
51985;SDS011;38002;53.296;6.600;2023-02-23T01:40:03;63.53;;;29.02;;
51985;SDS011;38002;53.296;6.600;2023-02-23T01:45:29;78.72;;;30.27;;
51985;SDS011;38002;53.296;6.600;2023-02-23T01:50:50;65.22;;;27.17;;
51985;SDS011;38002;53.296;6.600;2023-02-23T01:56:00;64.27;;;27.23;;
51985;SDS011;38002;53.296;6.600;2023-02-23T02:01:05;72.93;;;28.25;;
51985;SDS011;38002;53.296;6.600;2023-02-23T02:06:07;71.70;;;27.73;;
51985;SDS011;38002;53.296;6.600;2023-02-23T02:11:17;75.28;;;27.98;;
51985;SDS011;38002;53.296;6.600;2023-02-23T02:16:37;61.17;;;24.73;;
51985;SDS011;38002;53.296;6.600;2023-02-23T02:43:18;66.38;;;27.30;;
51985;SDS011;38002;53.296;6.600;2023-02-23T02:54:02;64.07;;;25.70;;
51985;SDS011;38002;53.296;6.600;2023-02-23T02:59:27;76.07;;;29.00;;
51985;SDS011;38002;53.296;6.600;2023-02-23T03:04:47;73.80;;;27.80;;
51985;SDS011;38002;53.296;6.600;2023-02-23T03:21:49;82.78;;;31.95;;
51985;SDS011;38002;53.296;6.600;2023-02-23T03:27:15;81.03;;;30.00;;
51985;SDS011;38002;53.296;6.600;2023-02-23T03:32:55;67.65;;;26.98;;
51985;SDS011;38002;53.296;6.600;2023-02-23T03:39:04;68.63;;;27.30;;
51985;SDS011;38002;53.296;6.600;2023-02-23T03:44:20;73.72;;;29.17;;
51985;SDS011;38002;53.296;6.600;2023-02-23T03:49:45;78.10;;;26.90;;
51985;SDS011;38002;53.296;6.600;2023-02-23T03:55:09;64.78;;;27.92;;
51985;SDS011;38002;53.296;6.600;2023-02-23T04:00:35;73.85;;;27.55;;
51985;SDS011;38002;53.296;6.600;2023-02-23T04:06:00;67.43;;;27.13;;
51985;SDS011;38002;53.296;6.600;2023-02-23T04:16:53;70.25;;;26.30;;
51985;SDS011;38002;53.296;6.600;2023-02-23T04:21:54;72.35;;;27.30;;
51985;SDS011;38002;53.296;6.600;2023-02-23T04:26:54;79.25;;;29.40;;
51985;SDS011;38002;53.296;6.600;2023-02-23T04:31:55;70.25;;;26.17;;
51985;SDS011;38002;53.296;6.600;2023-02-23T04:36:55;72.85;;;26.27;;
51985;SDS011;38002;53.296;6.600;2023-02-23T04:41:55;54.70;;;22.38;;
51985;SDS011;38002;53.296;6.600;2023-02-23T04:46:56;74.43;;;25.90;;
51985;SDS011;38002;53.296;6.600;2023-02-23T04:51:57;71.57;;;25.10;;
51985;SDS011;38002;53.296;6.600;2023-02-23T04:56:57;69.38;;;25.45;;
51985;SDS011;38002;53.296;6.600;2023-02-23T05:01:58;60.92;;;22.00;;
51985;SDS011;38002;53.296;6.600;2023-02-23T05:06:58;54.80;;;22.05;;
51985;SDS011;38002;53.296;6.600;2023-02-23T05:11:59;79.28;;;26.52;;
51985;SDS011;38002;53.296;6.600;2023-02-23T05:17:00;66.20;;;26.55;;
51985;SDS011;38002;53.296;6.600;2023-02-23T05:22:01;74.90;;;26.33;;
51985;SDS011;38002;53.296;6.600;2023-02-23T05:27:01;62.67;;;23.10;;
51985;SDS011;38002;53.296;6.600;2023-02-23T05:32:02;55.65;;;22.30;;
51985;SDS011;38002;53.296;6.600;2023-02-23T05:37:02;63.05;;;21.85;;
51985;SDS011;38002;53.296;6.600;2023-02-23T05:42:03;56.50;;;21.27;;
51985;SDS011;38002;53.296;6.600;2023-02-23T05:47:03;57.70;;;19.52;;
51985;SDS011;38002;53.296;6.600;2023-02-23T05:52:04;47.95;;;19.63;;
51985;SDS011;38002;53.296;6.600;2023-02-23T05:57:04;41.88;;;17.30;;
51985;SDS011;38002;53.296;6.600;2023-02-23T06:02:05;42.63;;;18.88;;
51985;SDS011;38002;53.296;6.600;2023-02-23T06:07:06;46.58;;;18.25;;
51985;SDS011;38002;53.296;6.600;2023-02-23T06:12:07;39.50;;;17.38;;
51985;SDS011;38002;53.296;6.600;2023-02-23T06:17:08;36.33;;;16.40;;
51985;SDS011;38002;53.296;6.600;2023-02-23T06:22:08;37.80;;;17.20;;
51985;SDS011;38002;53.296;6.600;2023-02-23T06:27:09;39.00;;;16.92;;
51985;SDS011;38002;53.296;6.600;2023-02-23T06:32:09;43.63;;;17.27;;
51985;SDS011;38002;53.296;6.600;2023-02-23T06:37:10;35.72;;;16.10;;
51985;SDS011;38002;53.296;6.600;2023-02-23T06:42:11;35.25;;;17.30;;
51985;SDS011;38002;53.296;6.600;2023-02-23T06:47:11;30.27;;;15.52;;
51985;SDS011;38002;53.296;6.600;2023-02-23T06:52:12;30.95;;;14.90;;
51985;SDS011;38002;53.296;6.600;2023-02-23T06:57:13;28.07;;;12.60;;
51985;SDS011;38002;53.296;6.600;2023-02-23T07:02:13;26.60;;;13.90;;
51985;SDS011;38002;53.296;6.600;2023-02-23T07:07:14;27.25;;;12.55;;
51985;SDS011;38002;53.296;6.600;2023-02-23T07:12:14;27.27;;;13.88;;
51985;SDS011;38002;53.296;6.600;2023-02-23T07:17:15;29.20;;;14.40;;
51985;SDS011;38002;53.296;6.600;2023-02-23T07:22:16;29.48;;;13.90;;
51985;SDS011;38002;53.296;6.600;2023-02-23T07:27:17;30.33;;;14.18;;
51985;SDS011;38002;53.296;6.600;2023-02-23T07:32:17;25.90;;;13.80;;
51985;SDS011;38002;53.296;6.600;2023-02-23T07:37:18;27.70;;;15.13;;
51985;SDS011;38002;53.296;6.600;2023-02-23T07:42:18;32.75;;;13.95;;
51985;SDS011;38002;53.296;6.600;2023-02-23T07:47:19;31.63;;;14.02;;
51985;SDS011;38002;53.296;6.600;2023-02-23T07:52:19;28.52;;;13.73;;
51985;SDS011;38002;53.296;6.600;2023-02-23T07:57:20;27.67;;;13.70;;
51985;SDS011;38002;53.296;6.600;2023-02-23T08:02:20;32.30;;;15.30;;
51985;SDS011;38002;53.296;6.600;2023-02-23T08:07:21;31.30;;;13.30;;
51985;SDS011;38002;53.296;6.600;2023-02-23T08:12:21;29.20;;;13.48;;
51985;SDS011;38002;53.296;6.600;2023-02-23T08:17:22;30.00;;;14.35;;
51985;SDS011;38002;53.296;6.600;2023-02-23T08:22:23;37.60;;;14.63;;
51985;SDS011;38002;53.296;6.600;2023-02-23T08:27:23;31.92;;;15.63;;
51985;SDS011;38002;53.296;6.600;2023-02-23T08:32:24;34.90;;;16.73;;
51985;SDS011;38002;53.296;6.600;2023-02-23T08:37:24;36.92;;;14.73;;
51985;SDS011;38002;53.296;6.600;2023-02-23T08:42:25;32.88;;;15.63;;
51985;SDS011;38002;53.296;6.600;2023-02-23T08:47:26;32.33;;;15.27;;
51985;SDS011;38002;53.296;6.600;2023-02-23T08:52:27;36.13;;;15.37;;
51985;SDS011;38002;53.296;6.600;2023-02-23T08:57:30;40.60;;;15.73;;
51985;SDS011;38002;53.296;6.600;2023-02-23T09:02:32;35.00;;;15.18;;
51985;SDS011;38002;53.296;6.600;2023-02-23T09:07:33;40.40;;;15.68;;
51985;SDS011;38002;53.296;6.600;2023-02-23T09:12:36;37.13;;;16.48;;
51985;SDS011;38002;53.296;6.600;2023-02-23T09:17:37;35.50;;;15.90;;
51985;SDS011;38002;53.296;6.600;2023-02-23T09:22:41;29.00;;;14.98;;
51985;SDS011;38002;53.296;6.600;2023-02-23T09:27:48;37.25;;;16.13;;
51985;SDS011;38002;53.296;6.600;2023-02-23T09:32:50;40.72;;;17.92;;
51985;SDS011;38002;53.296;6.600;2023-02-23T09:37:51;41.05;;;17.60;;
51985;SDS011;38002;53.296;6.600;2023-02-23T09:48:22;50.95;;;18.60;;
51985;SDS011;38002;53.296;6.600;2023-02-23T09:58:37;60.38;;;21.27;;
51985;SDS011;38002;53.296;6.600;2023-02-23T10:03:40;55.50;;;18.90;;
51985;SDS011;38002;53.296;6.600;2023-02-23T10:19:50;72.68;;;22.42;;
51985;SDS011;38002;53.296;6.600;2023-02-23T10:24:49;70.57;;;18.88;;
51985;SDS011;38002;53.296;6.600;2023-02-23T10:29:55;64.05;;;18.23;;
51985;SDS011;38002;53.296;6.600;2023-02-23T10:34:59;63.05;;;17.17;;
51985;SDS011;38002;53.296;6.600;2023-02-23T10:40:05;74.57;;;17.55;;
51985;SDS011;38002;53.296;6.600;2023-02-23T10:45:13;55.80;;;15.50;;
51985;SDS011;38002;53.296;6.600;2023-02-23T10:50:22;56.25;;;15.77;;
51985;SDS011;38002;53.296;6.600;2023-02-23T10:55:27;59.28;;;17.13;;
51985;SDS011;38002;53.296;6.600;2023-02-23T11:00:31;62.28;;;16.90;;
51985;SDS011;38002;53.296;6.600;2023-02-23T11:05:43;56.15;;;17.13;;
51985;SDS011;38002;53.296;6.600;2023-02-23T11:10:55;56.78;;;14.82;;
51985;SDS011;38002;53.296;6.600;2023-02-23T11:16:11;62.95;;;15.82;;
51985;SDS011;38002;53.296;6.600;2023-02-23T11:21:16;80.25;;;18.52;;
51985;SDS011;38002;53.296;6.600;2023-02-23T11:31:34;76.53;;;21.60;;
51985;SDS011;38002;53.296;6.600;2023-02-23T11:36:35;79.97;;;19.40;;
51985;SDS011;38002;53.296;6.600;2023-02-23T11:41:36;102.32;;;23.63;;
51985;SDS011;38002;53.296;6.600;2023-02-23T11:46:37;89.63;;;22.45;;
51985;SDS011;38002;53.296;6.600;2023-02-23T11:51:39;87.00;;;22.53;;
51985;SDS011;38002;53.296;6.600;2023-02-23T11:56:47;112.72;;;26.05;;
51985;SDS011;38002;53.296;6.600;2023-02-23T12:01:52;111.68;;;23.27;;
51985;SDS011;38002;53.296;6.600;2023-02-23T12:24:05;93.15;;;23.15;;
51985;SDS011;38002;53.296;6.600;2023-02-23T12:29:17;98.38;;;25.50;;
51985;SDS011;38002;53.296;6.600;2023-02-23T12:39:42;61.97;;;18.17;;
51985;SDS011;38002;53.296;6.600;2023-02-23T12:55:12;26.15;;;5.00;;
51985;SDS011;38002;53.296;6.600;2023-02-23T13:16:15;33.22;;;4.22;;
51985;SDS011;38002;53.296;6.600;2023-02-23T13:21:24;27.85;;;3.53;;
51985;SDS011;38002;53.296;6.600;2023-02-23T13:26:32;29.85;;;4.47;;
51985;SDS011;38002;53.296;6.600;2023-02-23T13:31:45;39.88;;;5.43;;
51985;SDS011;38002;53.296;6.600;2023-02-23T13:36:45;56.88;;;7.05;;
51985;SDS011;38002;53.296;6.600;2023-02-23T13:47:32;40.10;;;5.53;;
51985;SDS011;38002;53.296;6.600;2023-02-23T13:57:37;48.58;;;5.43;;
51985;SDS011;38002;53.296;6.600;2023-02-23T14:02:38;30.45;;;4.53;;
51985;SDS011;38002;53.296;6.600;2023-02-23T14:12:42;27.53;;;3.97;;
51985;SDS011;38002;53.296;6.600;2023-02-23T14:33:51;25.42;;;3.35;;
51985;SDS011;38002;53.296;6.600;2023-02-23T14:49:07;19.35;;;3.47;;
51985;SDS011;38002;53.296;6.600;2023-02-23T14:54:24;21.23;;;3.20;;
51985;SDS011;38002;53.296;6.600;2023-02-23T14:59:37;22.83;;;3.33;;
51985;SDS011;38002;53.296;6.600;2023-02-23T15:04:38;21.75;;;3.83;;
51985;SDS011;38002;53.296;6.600;2023-02-23T15:09:39;22.88;;;3.08;;
51985;SDS011;38002;53.296;6.600;2023-02-23T15:14:42;28.80;;;3.83;;
51985;SDS011;38002;53.296;6.600;2023-02-23T15:19:43;21.70;;;3.38;;
51985;SDS011;38002;53.296;6.600;2023-02-23T15:24:46;26.50;;;4.95;;
51985;SDS011;38002;53.296;6.600;2023-02-23T15:29:48;19.35;;;4.13;;
51985;SDS011;38002;53.296;6.600;2023-02-23T15:34:50;27.73;;;4.75;;
51985;SDS011;38002;53.296;6.600;2023-02-23T15:39:53;22.90;;;3.90;;
51985;SDS011;38002;53.296;6.600;2023-02-23T15:44:59;16.17;;;2.83;;
51985;SDS011;38002;53.296;6.600;2023-02-23T15:50:04;16.23;;;3.33;;
51985;SDS011;38002;53.296;6.600;2023-02-23T15:55:14;54.05;;;18.85;;
51985;SDS011;38002;53.296;6.600;2023-02-23T16:00:33;26.40;;;8.82;;
51985;SDS011;38002;53.296;6.600;2023-02-23T16:05:37;11.93;;;2.50;;
51985;SDS011;38002;53.296;6.600;2023-02-23T16:10:39;22.92;;;3.67;;
51985;SDS011;38002;53.296;6.600;2023-02-23T16:15:42;18.98;;;3.13;;
51985;SDS011;38002;53.296;6.600;2023-02-23T16:20:52;26.00;;;5.03;;
51985;SDS011;38002;53.296;6.600;2023-02-23T16:25:57;21.27;;;2.90;;
51985;SDS011;38002;53.296;6.600;2023-02-23T16:31:06;15.32;;;2.78;;
51985;SDS011;38002;53.296;6.600;2023-02-23T16:36:13;26.27;;;3.60;;
51985;SDS011;38002;53.296;6.600;2023-02-23T16:41:32;19.98;;;2.55;;
51985;SDS011;38002;53.296;6.600;2023-02-23T16:51:52;10.15;;;1.60;;
51985;SDS011;38002;53.296;6.600;2023-02-23T16:56:53;18.63;;;2.75;;
51985;SDS011;38002;53.296;6.600;2023-02-23T17:01:55;10.57;;;2.60;;
51985;SDS011;38002;53.296;6.600;2023-02-23T17:06:55;12.68;;;1.85;;
51985;SDS011;38002;53.296;6.600;2023-02-23T17:11:56;16.83;;;3.20;;
51985;SDS011;38002;53.296;6.600;2023-02-23T17:16:58;9.27;;;2.55;;
51985;SDS011;38002;53.296;6.600;2023-02-23T17:21:58;13.65;;;2.28;;
51985;SDS011;38002;53.296;6.600;2023-02-23T17:26:59;17.80;;;3.20;;
51985;SDS011;38002;53.296;6.600;2023-02-23T17:31:59;5.07;;;1.88;;
51985;SDS011;38002;53.296;6.600;2023-02-23T17:37:01;12.73;;;1.70;;
51985;SDS011;38002;53.296;6.600;2023-02-23T17:42:01;13.48;;;2.45;;
51985;SDS011;38002;53.296;6.600;2023-02-23T17:47:02;6.35;;;2.35;;
51985;SDS011;38002;53.296;6.600;2023-02-23T17:52:02;7.32;;;1.75;;
51985;SDS011;38002;53.296;6.600;2023-02-23T17:57:03;8.25;;;2.30;;
51985;SDS011;38002;53.296;6.600;2023-02-23T18:02:03;9.43;;;3.13;;
51985;SDS011;38002;53.296;6.600;2023-02-23T18:07:05;6.43;;;2.28;;
51985;SDS011;38002;53.296;6.600;2023-02-23T18:12:06;12.13;;;2.45;;
51985;SDS011;38002;53.296;6.600;2023-02-23T18:17:07;12.20;;;3.20;;
51985;SDS011;38002;53.296;6.600;2023-02-23T18:22:08;13.07;;;3.00;;
51985;SDS011;38002;53.296;6.600;2023-02-23T18:27:09;16.13;;;5.00;;
51985;SDS011;38002;53.296;6.600;2023-02-23T18:32:11;18.73;;;6.35;;
51985;SDS011;38002;53.296;6.600;2023-02-23T18:37:12;14.30;;;5.90;;
51985;SDS011;38002;53.296;6.600;2023-02-23T18:42:12;7.85;;;2.38;;
51985;SDS011;38002;53.296;6.600;2023-02-23T18:47:13;7.97;;;2.25;;
51985;SDS011;38002;53.296;6.600;2023-02-23T18:52:13;8.60;;;1.75;;
51985;SDS011;38002;53.296;6.600;2023-02-23T18:57:14;17.10;;;4.53;;
51985;SDS011;38002;53.296;6.600;2023-02-23T19:02:15;65.60;;;34.05;;
51985;SDS011;38002;53.296;6.600;2023-02-23T19:07:15;18.27;;;4.38;;
51985;SDS011;38002;53.296;6.600;2023-02-23T19:17:18;5.60;;;2.17;;
51985;SDS011;38002;53.296;6.600;2023-02-23T19:22:18;5.97;;;2.13;;
51985;SDS011;38002;53.296;6.600;2023-02-23T19:27:18;9.63;;;2.67;;
51985;SDS011;38002;53.296;6.600;2023-02-23T19:32:19;15.27;;;3.38;;
51985;SDS011;38002;53.296;6.600;2023-02-23T19:37:20;9.60;;;3.05;;
51985;SDS011;38002;53.296;6.600;2023-02-23T19:42:20;10.52;;;2.80;;
51985;SDS011;38002;53.296;6.600;2023-02-23T19:47:21;8.35;;;2.05;;
51985;SDS011;38002;53.296;6.600;2023-02-23T19:52:21;9.45;;;2.42;;
51985;SDS011;38002;53.296;6.600;2023-02-23T19:57:23;8.93;;;2.10;;
51985;SDS011;38002;53.296;6.600;2023-02-23T20:02:24;6.95;;;2.40;;
51985;SDS011;38002;53.296;6.600;2023-02-23T20:07:24;7.55;;;1.90;;
51985;SDS011;38002;53.296;6.600;2023-02-23T20:12:25;9.20;;;2.22;;
51985;SDS011;38002;53.296;6.600;2023-02-23T20:17:27;12.98;;;2.40;;
51985;SDS011;38002;53.296;6.600;2023-02-23T20:22:28;9.52;;;1.75;;
51985;SDS011;38002;53.296;6.600;2023-02-23T20:27:28;15.25;;;2.80;;
51985;SDS011;38002;53.296;6.600;2023-02-23T20:32:29;18.42;;;5.75;;
51985;SDS011;38002;53.296;6.600;2023-02-23T20:37:29;11.95;;;4.28;;
51985;SDS011;38002;53.296;6.600;2023-02-23T20:42:30;7.13;;;2.05;;
51985;SDS011;38002;53.296;6.600;2023-02-23T20:47:30;8.25;;;1.35;;
51985;SDS011;38002;53.296;6.600;2023-02-23T20:52:31;3.60;;;1.27;;
51985;SDS011;38002;53.296;6.600;2023-02-23T20:57:32;5.80;;;1.65;;
51985;SDS011;38002;53.296;6.600;2023-02-23T21:02:33;5.17;;;1.47;;
51985;SDS011;38002;53.296;6.600;2023-02-23T21:07:34;7.88;;;2.35;;
51985;SDS011;38002;53.296;6.600;2023-02-23T21:12:34;7.07;;;1.42;;
51985;SDS011;38002;53.296;6.600;2023-02-23T21:17:35;4.78;;;1.40;;
51985;SDS011;38002;53.296;6.600;2023-02-23T21:27:37;4.82;;;1.33;;
51985;SDS011;38002;53.296;6.600;2023-02-23T21:32:38;7.05;;;1.27;;
51985;SDS011;38002;53.296;6.600;2023-02-23T21:37:41;2.90;;;1.33;;
51985;SDS011;38002;53.296;6.600;2023-02-23T21:42:42;3.90;;;1.30;;
51985;SDS011;38002;53.296;6.600;2023-02-23T21:47:43;3.47;;;0.65;;
51985;SDS011;38002;53.296;6.600;2023-02-23T21:57:47;11.38;;;2.45;;
51985;SDS011;38002;53.296;6.600;2023-02-23T22:02:49;8.27;;;1.73;;
51985;SDS011;38002;53.296;6.600;2023-02-23T22:07:52;4.13;;;1.37;;
51985;SDS011;38002;53.296;6.600;2023-02-23T22:12:53;3.45;;;1.15;;
51985;SDS011;38002;53.296;6.600;2023-02-23T22:17:55;2.40;;;0.90;;
51985;SDS011;38002;53.296;6.600;2023-02-23T22:22:56;7.13;;;2.53;;
51985;SDS011;38002;53.296;6.600;2023-02-23T22:27:56;3.75;;;1.60;;
51985;SDS011;38002;53.296;6.600;2023-02-23T22:32:56;4.88;;;2.63;;
51985;SDS011;38002;53.296;6.600;2023-02-23T22:37:57;5.32;;;1.10;;
51985;SDS011;38002;53.296;6.600;2023-02-23T22:43:00;4.70;;;1.00;;
51985;SDS011;38002;53.296;6.600;2023-02-23T22:48:01;7.00;;;0.80;;
51985;SDS011;38002;53.296;6.600;2023-02-23T22:53:05;7.60;;;0.95;;
51985;SDS011;38002;53.296;6.600;2023-02-23T22:58:05;4.32;;;0.80;;
51985;SDS011;38002;53.296;6.600;2023-02-23T23:03:08;4.70;;;0.90;;
51985;SDS011;38002;53.296;6.600;2023-02-23T23:08:08;6.60;;;1.20;;
51985;SDS011;38002;53.296;6.600;2023-02-23T23:13:09;7.72;;;0.98;;
51985;SDS011;38002;53.296;6.600;2023-02-23T23:18:10;3.13;;;0.95;;
51985;SDS011;38002;53.296;6.600;2023-02-23T23:23:14;5.32;;;0.82;;
51985;SDS011;38002;53.296;6.600;2023-02-23T23:28:16;3.58;;;0.80;;
51985;SDS011;38002;53.296;6.600;2023-02-23T23:33:18;6.80;;;0.88;;
51985;SDS011;38002;53.296;6.600;2023-02-23T23:38:18;3.10;;;1.25;;
51985;SDS011;38002;53.296;6.600;2023-02-23T23:43:19;3.67;;;0.90;;
51985;SDS011;38002;53.296;6.600;2023-02-23T23:48:20;4.03;;;1.15;;
51985;SDS011;38002;53.296;6.600;2023-02-23T23:53:20;6.05;;;1.25;;
51985;SDS011;38002;53.296;6.600;2023-02-23T23:58:23;6.35;;;0.95;;
